หน้าหลัก
METAR-TAF:

METAR-TAF

ท่าอากาศยาน :

คอร์ก, ไอร์แลนด์

ละติจูด: 51-51N, ลองจิจูด: 008-29W, ความสูง: 153 ม.

การสังเกตสภาพอากาศปัจจุบัน

รายงานได้ทำขึ้นเมื่อ 38 นาทีที่แล้ว ณ เวลา 23:30 UTC
ลม 8 นอตจากเหนือ/ตะวันตกเฉียงเหนือ
อุณหภูมิ 10°C
ความชื้น 71%
ความกดอากาศ 1023 hPa
ทัศนวิสัย 10 กม. หรือมากกว่า
มีเมฆน้อยที่ความสูง 3800 ฟุต

METAR: EICK 182330Z 33008KT 9999 FEW038 10/05 Q1023 NOSIG

เวลา: 01:08 (00:08 UTC)

การพยากรณ์

รายงานได้ทำขึ้นเมื่อ 1 ชั่วโมงและ 8 นาทีที่แล้ว ณ เวลา 23:00 UTC
การพยากรณ์มีผลตั้งแต่วันที่ 19 ณ เวลา 00 UTC จนถึงวันที่ 19 ณ เวลา 24 UTC
ลม 9 นอตจากเหนือ
ทัศนวิสัย 10 กม. หรือมากกว่า
มีเมฆน้อยที่ความสูง 3500 ฟุต
กำลังกลายเป็น
ตั้งแต่วันที่ 19 ณ เวลา 14 UTC จนถึงวันที่ 19 ณ เวลา 16 UTC
ลม 7 นอตจากใต้
กำลังกลายเป็น
ตั้งแต่วันที่ 19 ณ เวลา 20 UTC จนถึงวันที่ 19 ณ เวลา 22 UTC
ลม 10 นอตจากเหนือ

TAF: EICK 182300Z 1900/1924 35009KT 9999 FEW035 BECMG 1914/1916 18007KT BECMG 1920/1922 35010KT

สังเกตการณ์สภาพอากาศและพยากรณ์อากาศของสนามบินมากกว่า 4000 แห่ง (รายงาน METAR และ TAF).

สถานีที่ดูได้จะแสดงไว้ด้วยจุดสีเหลืองและสีแดงบนแผนที่.

เลื่อนเมาส์ไปเหนือจุดเพื่อดูชื่อสถานี.

แล้วคลิกเพื่อดูสังเกตการณ์และการพยากรณ์สภาพอากาศ.

ในการเปลี่ยนแผนที่: คลิกที่ปุ่มสีเขียวที่มีกากบาทสีดำเพื่อซูมเข้า; ที่ปุ่มสีเขียวที่มีขีดเพื่อซูมออก; หรือที่ลูกศรสีเขียวเพื่อไปยังแผนที่ที่อยู่ติดกัน.


METAR-TAF: